Time;durP1;ratioP1;P1;durP2;ratioP2;P2;SDS_P1;SDS_P2;PMS_P1;PMS_P2;Temp;Humidity;BMP_temperature;BMP_pressure;BME280_temperature;BME280_humidity;BME280_pressure;Samples;Min_cycle;Max_cycle;Signal;HPM_P1;HPM_P2
2024/01/07 00:01:48;;;;;;;13.33;7.93;;;1.70;98.80;;;;;;5112614;28;20310;-62
2024/01/07 00:04:16;;;;;;;11.30;8.70;;;1.60;98.00;;;;;;5112579;28;20631;-61
2024/01/07 00:06:47;;;;;;;15.70;9.33;;;1.80;99.30;;;;;;5112690;28;20845;-62
2024/01/07 00:09:16;;;;;;;17.23;11.27;;;1.90;98.40;;;;;;5112580;28;20190;-61
2024/01/07 00:11:45;;;;;;;19.50;11.43;;;2.10;97.00;;;;;;5112341;28;20200;-63
2024/01/07 00:14:16;;;;;;;16.77;9.83;;;1.70;96.20;;;;;;5112411;28;20254;-62
2024/01/07 00:16:44;;;;;;;20.00;10.93;;;1.60;97.30;;;;;;5112316;28;20239;-62
2024/01/07 00:19:13;;;;;;;16.97;10.20;;;1.80;96.80;;;;;;5112076;28;20224;-62
2024/01/07 00:21:41;;;;;;;21.83;13.73;;;1.70;95.50;;;;;;5111835;28;20201;-62
2024/01/07 00:24:10;;;;;;;7.80;5.67;;;1.70;94.20;;;;;;5112099;28;20204;-61
2024/01/07 00:26:38;;;;;;;12.47;8.23;;;1.40;93.60;;;;;;5111836;28;20198;-62
2024/01/07 00:29:07;;;;;;;10.63;6.43;;;0.90;98.40;;;;;;5093408;28;20210;-61
2024/01/07 00:31:36;;;;;;;7.37;5.30;;;1.00;98.00;;;;;;5111863;28;20205;-61
2024/01/07 00:34:05;;;;;;;16.97;10.77;;;0.90;99.00;;;;;;5092654;28;20263;-62
2024/01/07 00:36:33;;;;;;;14.07;9.13;;;1.10;97.50;;;;;;5111689;28;20208;-62
2024/01/07 00:39:01;;;;;;;11.20;8.13;;;1.30;97.10;;;;;;5110409;28;20937;-62
2024/01/07 00:41:30;;;;;;;19.73;10.07;;;1.40;96.20;;;;;;5111698;28;20284;-63
2024/01/07 00:43:58;;;;;;;19.57;10.40;;;1.10;96.40;;;;;;5093113;28;20197;-61
2024/01/07 00:46:26;;;;;;;13.37;7.63;;;1.10;96.50;;;;;;5111617;28;20252;-62
2024/01/07 00:48:56;;;;;;;44.30;23.40;;;1.30;98.20;;;;;;5093265;28;20312;-62
2024/01/07 00:51:24;;;;;;;26.23;14.63;;;1.40;96.80;;;;;;5092633;28;20202;-62
2024/01/07 00:53:53;;;;;;;19.97;12.57;;;1.60;96.90;;;;;;5111588;28;20202;-61
2024/01/07 00:56:21;;;;;;;10.83;8.13;;;1.60;96.30;;;;;;5111364;28;20288;-62
2024/01/07 00:58:49;;;;;;;16.57;10.80;;;1.50;95.10;;;;;;5111264;28;20227;-62
2024/01/07 01:01:18;;;;;;;13.47;9.67;;;1.50;94.90;;;;;;5092887;28;20209;-61
2024/01/07 01:03:47;;;;;;;15.37;10.13;;;1.30;95.90;;;;;;5111125;28;20247;-63
2024/01/07 01:06:17;;;;;;;9.93;7.43;;;1.20;95.70;;;;;;5092748;28;20711;-65
2024/01/07 01:08:46;;;;;;;9.57;6.67;;;1.00;96.70;;;;;;5111200;28;20300;-61
2024/01/07 01:11:14;;;;;;;27.70;15.60;;;1.10;95.90;;;;;;5111126;28;20598;-62
2024/01/07 01:13:43;;;;;;;13.83;8.80;;;1.00;95.80;;;;;;5092619;28;20211;-63
2024/01/07 01:16:11;;;;;;;12.00;8.27;;;0.90;99.00;;;;;;5111203;28;20665;-62
2024/01/07 01:18:39;;;;;;;11.20;7.90;;;1.10;97.70;;;;;;5092581;28;20324;-61
2024/01/07 01:21:08;;;;;;;12.90;8.13;;;1.10;96.90;;;;;;5092200;28;20233;-61
2024/01/07 01:23:38;;;;;;;11.13;7.23;;;1.10;96.60;;;;;;5110962;28;20247;-62
2024/01/07 01:26:06;;;;;;;15.43;9.03;;;0.90;97.30;;;;;;5110877;28;20279;-61
2024/01/07 01:28:34;;;;;;;11.13;7.50;;;1.00;97.00;;;;;;5110747;28;20228;-60
2024/01/07 01:31:03;;;;;;;16.30;10.93;;;0.80;95.70;;;;;;5110627;28;20208;-62
2024/01/07 01:33:31;;;;;;;14.20;8.97;;;0.40;99.30;;;;;;5110833;28;20206;-62
2024/01/07 01:36:04;;;;;;;12.47;8.97;;;0.60;98.50;;;;;;5092064;28;20209;-61
2024/01/07 01:38:33;;;;;;;12.83;8.23;;;0.50;99.70;;;;;;5092243;28;20216;-61
2024/01/07 01:41:44;;;;;;;7.90;6.03;;;0.60;99.90;;;;;;5091798;28;20308;-62
2024/01/07 01:44:13;;;;;;;9.20;6.20;;;0.70;97.60;;;;;;5110401;28;20201;-60
2024/01/07 01:46:42;;;;;;;6.60;5.90;;;0.70;97.60;;;;;;5091941;28;20604;-63
2024/01/07 01:49:10;;;;;;;12.73;6.73;;;0.80;96.90;;;;;;5110004;28;20202;-62
2024/01/07 01:51:38;;;;;;;7.17;5.77;;;0.90;97.20;;;;;;5109801;28;20679;-61
2024/01/07 01:54:08;;;;;;;10.80;6.87;;;0.80;96.10;;;;;;5091487;28;20209;-61
2024/01/07 01:56:38;;;;;;;7.00;5.90;;;0.80;96.90;;;;;;5110455;28;20194;-61
2024/01/07 01:59:06;;;;;;;8.47;7.27;;;0.60;96.40;;;;;;5110136;28;20666;-62
2024/01/07 02:01:34;;;;;;;10.20;6.97;;;0.70;97.50;;;;;;5091596;28;20222;-60
2024/01/07 02:04:03;;;;;;;7.87;5.47;;;0.60;97.30;;;;;;5109803;28;20291;-61
2024/01/07 02:06:32;;;;;;;8.97;6.10;;;0.60;97.70;;;;;;5109924;28;20610;-62
2024/01/07 02:09:01;;;;;;;7.67;6.03;;;0.60;97.10;;;;;;5091618;28;20220;-62
2024/01/07 02:11:29;;;;;;;8.83;6.37;;;0.60;95.80;;;;;;5109848;28;20948;-62
2024/01/07 02:13:59;;;;;;;7.10;5.10;;;0.60;94.30;;;;;;5091360;28;20685;-62
2024/01/07 02:16:28;;;;;;;9.23;5.40;;;0.30;95.80;;;;;;5091520;28;20621;-61
2024/01/07 02:18:56;;;;;;;9.03;5.70;;;0.30;96.40;;;;;;5091298;28;20738;-61
2024/01/07 02:21:24;;;;;;;7.20;5.60;;;0.30;95.60;;;;;;5109778;28;20227;-62
2024/01/07 02:23:53;;;;;;;8.40;6.37;;;0.30;94.20;;;;;;5074778;28;20198;-62
2024/01/07 02:26:22;;;;;;;6.50;5.47;;;0.40;95.10;;;;;;5091135;28;20205;-62
2024/01/07 02:28:51;;;;;;;5.63;4.90;;;0.10;94.70;;;;;;5109552;28;20282;-62
2024/01/07 02:31:19;;;;;;;6.43;5.07;;;0.10;94.60;;;;;;5109310;28;20195;-63
2024/01/07 02:33:48;;;;;;;7.43;5.53;;;0.10;95.70;;;;;;5109492;28;20194;-61
2024/01/07 02:36:17;;;;;;;5.53;5.03;;;0.20;94.70;;;;;;5091267;28;20741;-61
2024/01/07 02:38:45;;;;;;;6.83;4.77;;;0.00;95.30;;;;;;5090015;28;20205;-61
2024/01/07 02:41:13;;;;;;;6.70;5.57;;;0.00;94.70;;;;;;5109408;28;20363;-62
2024/01/07 02:43:43;;;;;;;7.33;5.47;;;0.10;96.20;;;;;;5090616;28;20208;-62
2024/01/07 02:46:11;;;;;;;7.27;5.57;;;0.20;95.60;;;;;;5109244;28;20589;-61
2024/01/07 02:48:40;;;;;;;9.17;6.10;;;0.10;95.70;;;;;;5109394;28;20196;-61
2024/01/07 02:51:09;;;;;;;7.93;5.20;;;0.10;95.30;;;;;;5090636;28;20308;-61
2024/01/07 02:53:37;;;;;;;5.57;4.63;;;0.00;95.10;;;;;;5108965;28;20287;-60
2024/01/07 02:56:08;;;;;;;6.33;5.10;;;-0.40;96.70;;;;;;5090861;28;20208;-61
2024/01/07 02:58:36;;;;;;;6.33;5.20;;;-0.20;96.30;;;;;;5108993;28;20286;-62
2024/01/07 03:01:10;;;;;;;7.20;4.80;;;-0.20;97.00;;;;;;5108374;28;20316;-61
2024/01/07 03:03:38;;;;;;;5.00;4.50;;;-0.20;96.30;;;;;;5109098;28;20281;-60
2024/01/07 03:06:07;;;;;;;8.30;5.40;;;-0.10;96.40;;;;;;5109042;28;20275;-61
2024/01/07 03:08:35;;;;;;;8.00;4.97;;;0.10;95.10;;;;;;5108934;28;20271;-61
2024/01/07 03:11:06;;;;;;;7.77;5.67;;;0.00;94.10;;;;;;5109145;28;20207;-61
2024/01/07 03:13:34;;;;;;;5.33;4.70;;;0.00;93.90;;;;;;5109211;28;20385;-61
2024/01/07 03:16:03;;;;;;;6.67;4.73;;;-0.30;96.30;;;;;;5109034;28;20254;-61
2024/01/07 03:18:32;;;;;;;9.30;5.40;;;-0.20;95.30;;;;;;5109141;28;20196;-62
2024/01/07 03:21:01;;;;;;;6.23;4.97;;;-0.10;96.00;;;;;;5108844;28;20223;-62
2024/01/07 03:23:29;;;;;;;5.53;4.77;;;-0.10;96.10;;;;;;5108909;28;20200;-63
2024/01/07 03:25:59;;;;;;;6.13;5.00;;;0.10;94.90;;;;;;5108791;28;20579;-62
2024/01/07 03:28:27;;;;;;;6.27;5.33;;;0.10;94.40;;;;;;5108846;28;20189;-62
2024/01/07 03:30:55;;;;;;;5.50;4.90;;;0.10;94.70;;;;;;5108953;28;20204;-61
2024/01/07 03:33:24;;;;;;;7.20;4.50;;;-0.20;95.50;;;;;;5109184;28;20578;-62
2024/01/07 03:35:54;;;;;;;4.83;4.43;;;-0.20;96.30;;;;;;5109005;28;20220;-62
2024/01/07 03:38:22;;;;;;;6.27;5.07;;;-0.10;96.20;;;;;;5108845;28;20196;-62
2024/01/07 03:40:50;;;;;;;7.90;5.00;;;0.00;94.90;;;;;;5108773;28;20737;-61
2024/01/07 03:43:19;;;;;;;7.03;5.30;;;-0.10;95.80;;;;;;5109038;28;20192;-62
2024/01/07 03:45:49;;;;;;;5.80;4.93;;;0.10;95.70;;;;;;5108776;28;20257;-62
2024/01/07 03:48:17;;;;;;;5.80;4.97;;;0.20;94.80;;;;;;5108630;28;20677;-62
2024/01/07 03:50:46;;;;;;;6.50;5.00;;;0.30;93.30;;;;;;5108633;28;20198;-62
2024/01/07 03:53:16;;;;;;;6.07;4.57;;;-0.10;95.30;;;;;;5108704;28;20342;-61
2024/01/07 03:55:44;;;;;;;8.30;6.00;;;0.10;95.90;;;;;;5108929;28;20197;-62
2024/01/07 03:58:12;;;;;;;6.60;5.37;;;0.00;94.70;;;;;;5108600;28;20292;-61
2024/01/07 04:00:41;;;;;;;8.57;5.43;;;-0.10;96.70;;;;;;5108596;28;20587;-61
2024/01/07 04:03:09;;;;;;;6.23;4.93;;;0.10;95.90;;;;;;5108568;28;20267;-62
2024/01/07 04:05:38;;;;;;;5.93;4.90;;;0.10;94.80;;;;;;5108497;28;20279;-61
2024/01/07 04:08:10;;;;;;;6.40;5.47;;;0.10;96.10;;;;;;5108416;28;20296;-61
2024/01/07 04:10:39;;;;;;;7.20;5.50;;;0.00;96.00;;;;;;5108396;28;20195;-62
2024/01/07 04:13:08;;;;;;;4.93;4.40;;;0.20;96.20;;;;;;5111146;28;20209;-62
2024/01/07 04:15:36;;;;;;;6.43;4.87;;;0.20;94.40;;;;;;5112395;28;20195;-61
2024/01/07 04:18:05;;;;;;;5.57;5.07;;;0.10;95.30;;;;;;5112283;28;20263;-62
2024/01/07 04:20:34;;;;;;;7.03;4.83;;;0.10;95.30;;;;;;5112078;28;20307;-62
2024/01/07 04:23:02;;;;;;;7.30;5.40;;;0.10;95.60;;;;;;5112134;28;20393;-62
2024/01/07 04:25:30;;;;;;;7.43;6.50;;;-0.10;94.70;;;;;;5112216;28;20184;-61
2024/01/07 04:28:00;;;;;;;5.90;5.03;;;0.00;95.70;;;;;;5112083;28;20619;-61
2024/01/07 04:30:28;;;;;;;8.87;6.00;;;-0.20;95.80;;;;;;5111968;28;20197;-62
2024/01/07 04:32:57;;;;;;;4.83;4.30;;;0.00;94.30;;;;;;5112124;28;20270;-62
2024/01/07 04:35:25;;;;;;;6.13;4.67;;;-0.40;93.30;;;;;;5112034;28;20197;-62
2024/01/07 04:37:53;;;;;;;6.10;4.93;;;-0.30;95.00;;;;;;5111962;28;20963;-60
2024/01/07 04:40:21;;;;;;;6.73;4.23;;;-0.50;95.40;;;;;;5093449;28;20224;-62
2024/01/07 04:42:50;;;;;;;7.10;5.20;;;-0.40;95.20;;;;;;5111843;28;20216;-61
2024/01/07 04:45:19;;;;;;;5.77;4.50;;;-0.30;95.20;;;;;;5111753;28;20255;-60
2024/01/07 04:47:48;;;;;;;7.50;5.87;;;-0.40;95.70;;;;;;5111494;28;20192;-62
2024/01/07 04:50:19;;;;;;;7.10;4.90;;;-0.40;96.20;;;;;;5111393;28;20219;-61
2024/01/07 04:52:48;;;;;;;6.27;5.33;;;-0.40;96.30;;;;;;5111379;28;20204;-61
2024/01/07 04:55:15;;;;;;;6.93;5.40;;;-0.20;96.40;;;;;;5111456;28;20357;-62
2024/01/07 04:57:43;;;;;;;8.00;6.37;;;-0.30;96.90;;;;;;5111279;28;20193;-61
2024/01/07 05:00:13;;;;;;;7.90;5.83;;;-0.20;96.10;;;;;;5111379;28;20737;-61
2024/01/07 05:02:43;;;;;;;6.50;5.47;;;-0.40;96.70;;;;;;5110930;28;20317;-62
2024/01/07 05:05:11;;;;;;;7.63;5.57;;;-0.30;97.40;;;;;;5111155;28;20666;-62
2024/01/07 05:07:39;;;;;;;8.00;5.33;;;-0.30;98.10;;;;;;5111085;28;20971;-61
2024/01/07 05:10:08;;;;;;;7.73;5.90;;;-0.30;97.90;;;;;;5111069;28;20199;-61
2024/01/07 05:12:37;;;;;;;7.50;6.13;;;-0.40;98.60;;;;;;5111119;28;20287;-60
2024/01/07 05:15:07;;;;;;;7.47;6.43;;;-0.60;99.90;;;;;;5111149;28;20219;-60
2024/01/07 05:17:35;;;;;;;9.07;6.30;;;-0.50;99.90;;;;;;5111217;28;20196;-61
2024/01/07 05:20:07;;;;;;;8.53;7.10;;;-0.60;99.90;;;;;;5110939;28;20534;-62
2024/01/07 05:22:35;;;;;;;7.60;6.60;;;-0.40;99.90;;;;;;5110947;28;20333;-61
2024/01/07 05:25:04;;;;;;;8.00;6.03;;;-0.30;99.60;;;;;;5110323;28;20218;-61
2024/01/07 05:27:33;;;;;;;7.80;6.30;;;-0.30;99.00;;;;;;5110974;28;20246;-62
2024/01/07 05:30:02;;;;;;;6.57;5.73;;;-0.30;98.60;;;;;;5110910;28;20196;-62
2024/01/07 05:32:31;;;;;;;8.27;6.43;;;-0.40;98.60;;;;;;5110807;28;20222;-61
2024/01/07 05:34:59;;;;;;;10.93;5.80;;;-0.70;99.90;;;;;;5110681;28;20224;-62
2024/01/07 05:37:29;;;;;;;8.70;6.10;;;-1.00;99.90;;;;;;5110537;28;20198;-60
2024/01/07 05:39:57;;;;;;;6.40;5.70;;;-1.00;99.90;;;;;;5110651;28;20234;-61
2024/01/07 05:42:26;;;;;;;6.87;5.87;;;-1.10;99.90;;;;;;5110527;28;20253;-62
2024/01/07 05:44:54;;;;;;;7.07;5.93;;;-1.10;99.90;;;;;;5092458;28;20236;-62
2024/01/07 05:47:22;;;;;;;7.13;5.43;;;-0.90;99.90;;;;;;5110763;28;20198;-62
2024/01/07 05:49:51;;;;;;;8.57;6.20;;;-1.00;99.90;;;;;;5110454;28;20837;-61
2024/01/07 05:52:20;;;;;;;8.17;6.50;;;-1.10;99.90;;;;;;5110636;28;20200;-59
2024/01/07 05:54:50;;;;;;;7.53;5.90;;;-0.80;99.90;;;;;;5110390;28;20184;-61
2024/01/07 05:57:18;;;;;;;8.60;6.03;;;-1.00;97.70;;;;;;5110295;28;20199;-61
2024/01/07 05:59:47;;;;;;;8.03;5.97;;;-1.00;97.60;;;;;;5110278;28;20250;-61
2024/01/07 06:02:18;;;;;;;8.00;4.97;;;-1.10;96.40;;;;;;5110260;28;20662;-62
2024/01/07 06:04:47;;;;;;;8.37;5.67;;;-1.40;96.50;;;;;;5110310;28;20204;-62
2024/01/07 06:07:15;;;;;;;6.40;5.37;;;-1.40;96.80;;;;;;5110074;28;20224;-62
2024/01/07 06:09:44;;;;;;;6.53;5.20;;;-1.60;94.80;;;;;;5110073;28;20284;-62
2024/01/07 06:12:13;;;;;;;8.37;5.73;;;-1.50;95.50;;;;;;5110213;28;20188;-63
2024/01/07 06:14:41;;;;;;;7.67;5.40;;;-1.50;94.20;;;;;;5109997;28;20243;-61
2024/01/07 06:17:10;;;;;;;7.43;5.70;;;-1.40;92.70;;;;;;5110078;28;20192;-61
2024/01/07 06:19:38;;;;;;;7.47;5.63;;;-1.50;92.50;;;;;;5109708;28;20192;-62
2024/01/07 06:22:06;;;;;;;8.30;5.20;;;-1.80;94.90;;;;;;5109806;28;20246;-63
2024/01/07 06:24:35;;;;;;;7.20;5.80;;;-2.00;93.70;;;;;;5109899;28;20190;-60
2024/01/07 06:27:03;;;;;;;9.07;6.00;;;-2.20;95.40;;;;;;5109765;28;20608;-62
2024/01/07 06:29:33;;;;;;;10.40;7.20;;;-2.10;96.70;;;;;;5109800;28;20688;-62
2024/01/07 06:32:03;;;;;;;7.67;5.93;;;-1.80;94.20;;;;;;5109509;28;20187;-63
2024/01/07 06:34:32;;;;;;;7.40;5.67;;;-1.70;92.70;;;;;;5109451;28;20282;-62
2024/01/07 06:37:00;;;;;;;8.57;5.53;;;-1.90;91.40;;;;;;5108310;28;20286;-61
2024/01/07 06:39:29;;;;;;;7.83;6.13;;;-1.90;91.60;;;;;;5109096;28;20235;-61
2024/01/07 06:41:57;;;;;;;7.77;5.83;;;-1.80;89.50;;;;;;5109266;28;20230;-61
2024/01/07 06:44:25;;;;;;;9.03;5.77;;;-1.60;88.10;;;;;;5109372;28;20187;-62
2024/01/07 06:46:55;;;;;;;9.03;6.27;;;-1.90;83.70;;;;;;5109051;28;20234;-61
2024/01/07 06:49:23;;;;;;;9.83;6.30;;;-1.90;84.50;;;;;;5109169;28;20191;-61
2024/01/07 06:51:51;;;;;;;8.67;6.00;;;-1.80;84.60;;;;;;5108893;28;20188;-60
2024/01/07 06:54:20;;;;;;;9.40;6.33;;;-1.90;82.10;;;;;;5108988;28;20192;-61
2024/01/07 06:56:48;;;;;;;7.37;5.97;;;-2.00;85.00;;;;;;5109052;28;20259;-61
2024/01/07 06:59:16;;;;;;;7.50;5.13;;;-1.90;82.40;;;;;;5109002;28;20564;-62
2024/01/07 07:01:45;;;;;;;7.97;6.40;;;-2.20;82.00;;;;;;5108848;28;20203;-61
2024/01/07 07:04:14;;;;;;;7.03;6.07;;;-2.20;82.80;;;;;;5108851;28;20701;-60
2024/01/07 07:06:43;;;;;;;8.50;5.43;;;-2.40;83.70;;;;;;5108818;28;20195;-61
2024/01/07 07:09:12;;;;;;;9.53;6.00;;;-2.30;85.70;;;;;;5108684;28;20192;-62
2024/01/07 07:11:41;;;;;;;11.07;6.80;;;-2.20;83.40;;;;;;5108803;28;20191;-61
2024/01/07 07:14:09;;;;;;;11.77;7.20;;;-2.20;83.10;;;;;;5108815;28;20190;-60
2024/01/07 07:16:37;;;;;;;11.00;7.10;;;-2.10;83.80;;;;;;5108947;28;20738;-61
2024/01/07 07:19:05;;;;;;;12.23;6.97;;;-2.10;85.50;;;;;;5108777;28;20228;-60
2024/01/07 07:21:35;;;;;;;8.70;5.90;;;-2.20;83.40;;;;;;5108566;28;20264;-61
2024/01/07 07:24:04;;;;;;;8.20;6.70;;;-2.50;97.20;;;;;;5108484;28;20220;-61
2024/01/07 07:26:33;;;;;;;16.70;9.30;;;-2.60;99.90;;;;;;5108630;28;20192;-60
2024/01/07 07:29:01;;;;;;;11.03;6.93;;;-2.50;99.90;;;;;;5108644;28;20296;-61
2024/01/07 07:31:30;;;;;;;12.83;7.27;;;-2.60;98.70;;;;;;5108565;28;20279;-60
2024/01/07 07:33:58;;;;;;;9.23;7.03;;;-2.50;94.50;;;;;;5108535;28;20283;-61
2024/01/07 07:36:27;;;;;;;10.10;6.50;;;-2.40;96.50;;;;;;5108587;28;20649;-61
2024/01/07 07:38:56;;;;;;;12.33;8.40;;;-2.30;99.60;;;;;;5108118;28;20196;-62
2024/01/07 07:41:24;;;;;;;13.23;8.27;;;-2.40;93.10;;;;;;5108499;28;20195;-61
2024/01/07 07:43:54;;;;;;;10.73;7.83;;;-2.50;95.20;;;;;;5108093;28;20227;-61
2024/01/07 07:46:22;;;;;;;12.17;8.57;;;-2.80;91.50;;;;;;5108289;28;20208;-62
2024/01/07 07:48:51;;;;;;;27.63;16.77;;;-2.50;92.40;;;;;;5112267;28;20955;-60
2024/01/07 07:51:19;;;;;;;10.07;8.07;;;-2.30;92.60;;;;;;5112275;28;20205;-61
2024/01/07 07:53:47;;;;;;;9.50;6.83;;;-2.50;81.10;;;;;;5093993;28;20208;-61
2024/01/07 07:56:17;;;;;;;11.50;8.47;;;-2.50;81.10;;;;;;5104670;28;20231;-61
2024/01/07 07:58:45;;;;;;;11.53;7.70;;;-2.40;82.10;;;;;;5091957;28;20188;-61
2024/01/07 08:01:13;;;;;;;13.63;10.03;;;-2.20;76.70;;;;;;5091892;28;20200;-61
2024/01/07 08:03:41;;;;;;;11.47;8.80;;;-2.30;75.20;;;;;;5091845;28;20633;-61
2024/01/07 08:06:10;;;;;;;9.37;6.67;;;-2.30;74.50;;;;;;5091912;28;20245;-61
2024/01/07 08:08:39;;;;;;;15.10;9.50;;;-2.60;72.60;;;;;;5108913;27;20196;-59
2024/01/07 08:11:09;;;;;;;14.60;9.83;;;-2.60;73.90;;;;;;5121655;27;20200;-61
2024/01/07 08:13:39;;;;;;;8.87;7.40;;;-2.60;72.00;;;;;;5112854;28;20327;-62
2024/01/07 08:16:10;;;;;;;10.27;6.80;;;-2.70;70.80;;;;;;5100776;28;20222;-62
2024/01/07 08:18:38;;;;;;;12.43;8.40;;;-2.80;72.90;;;;;;5092077;28;20253;-61
2024/01/07 08:21:07;;;;;;;10.83;8.20;;;-2.70;74.10;;;;;;5091953;28;20196;-65
2024/01/07 08:23:35;;;;;;;19.03;12.77;;;-2.70;70.90;;;;;;5091466;28;20296;-61
2024/01/07 08:26:03;;;;;;;12.30;8.70;;;-2.90;69.80;;;;;;5091853;28;20874;-61
2024/01/07 08:28:31;;;;;;;12.60;9.43;;;-2.90;69.00;;;;;;5091739;28;20196;-60
2024/01/07 08:31:01;;;;;;;10.13;6.83;;;-3.10;68.70;;;;;;5107372;28;20307;-61
2024/01/07 08:33:33;;;;;;;9.00;6.40;;;-3.10;71.50;;;;;;5112367;28;20717;-62
2024/01/07 08:36:01;;;;;;;8.93;7.57;;;-3.10;70.60;;;;;;5112167;28;20847;-63
2024/01/07 08:38:29;;;;;;;8.27;6.07;;;-3.00;71.60;;;;;;5111751;28;20210;-60
2024/01/07 08:40:59;;;;;;;11.53;7.37;;;-3.10;72.30;;;;;;5090404;28;20239;-60
2024/01/07 08:43:27;;;;;;;10.53;8.13;;;-3.10;70.20;;;;;;5091719;28;20228;-60
2024/01/07 08:45:56;;;;;;;11.03;9.60;;;-3.00;70.40;;;;;;5089274;28;20242;-60
2024/01/07 08:48:25;;;;;;;14.77;9.67;;;-2.80;72.50;;;;;;5071204;28;20185;-61
2024/01/07 08:50:54;;;;;;;9.70;7.07;;;-2.60;70.30;;;;;;5071013;28;20197;-62
2024/01/07 08:53:22;;;;;;;12.40;8.17;;;-2.60;68.30;;;;;;5071070;28;20204;-62
2024/01/07 08:55:50;;;;;;;9.67;7.63;;;-2.60;68.20;;;;;;5071219;28;20255;-62
2024/01/07 08:58:19;;;;;;;13.37;7.97;;;-2.80;66.30;;;;;;5070615;28;20207;-61
2024/01/07 09:00:47;;;;;;;12.43;8.37;;;-2.80;67.10;;;;;;5071124;28;20193;-60
2024/01/07 09:03:15;;;;;;;10.40;6.50;;;-2.60;68.10;;;;;;5071224;28;20193;-61
2024/01/07 09:05:45;;;;;;;11.87;7.70;;;-2.70;65.80;;;;;;5070997;28;20204;-59
2024/01/07 09:08:14;;;;;;;13.47;7.37;;;-2.70;65.60;;;;;;5070696;28;20232;-60
2024/01/07 09:10:42;;;;;;;13.90;8.97;;;-2.80;64.90;;;;;;5071114;28;20212;-59
2024/01/07 09:13:11;;;;;;;13.03;8.23;;;-2.80;65.90;;;;;;5071096;28;20196;-60
2024/01/07 09:15:39;;;;;;;14.77;7.37;;;-2.60;64.70;;;;;;5071038;28;20292;-60
2024/01/07 09:18:08;;;;;;;10.67;8.17;;;-2.80;63.80;;;;;;5071130;28;20588;-61
2024/01/07 09:20:36;;;;;;;8.33;6.27;;;-3.00;64.30;;;;;;5070290;28;20189;-61
2024/01/07 09:23:06;;;;;;;7.70;6.50;;;-3.20;64.20;;;;;;5070455;28;20219;-61
2024/01/07 09:25:34;;;;;;;8.97;6.90;;;-3.10;65.20;;;;;;5070592;28;20228;-59
2024/01/07 09:28:04;;;;;;;12.90;8.33;;;-2.90;65.40;;;;;;5071285;28;20693;-61
2024/01/07 09:30:32;;;;;;;15.33;9.37;;;-2.90;64.80;;;;;;5091037;28;20605;-61
2024/01/07 09:33:01;;;;;;;17.60;10.30;;;-2.90;64.50;;;;;;5090907;28;20241;-59
2024/01/07 09:35:29;;;;;;;15.70;9.60;;;-2.90;64.50;;;;;;5090243;28;20682;-61
2024/01/07 09:37:58;;;;;;;25.17;11.70;;;-3.10;65.30;;;;;;5090668;28;20246;-60
2024/01/07 09:40:28;;;;;;;16.57;8.80;;;-2.90;65.10;;;;;;5104952;28;20235;-59
2024/01/07 09:42:57;;;;;;;12.03;8.10;;;-2.70;64.90;;;;;;5111208;28;20192;-59
2024/01/07 09:45:26;;;;;;;11.00;8.10;;;-2.80;64.40;;;;;;5110890;28;20246;-60
2024/01/07 09:47:54;;;;;;;18.40;11.27;;;-2.90;63.60;;;;;;5110936;28;20202;-60
2024/01/07 09:50:23;;;;;;;14.53;9.73;;;-2.70;64.40;;;;;;5110322;28;20196;-59
2024/01/07 09:52:57;;;;;;;21.97;10.47;;;-2.80;64.10;;;;;;5111123;28;20192;-61
2024/01/07 09:55:34;;;;;;;14.43;9.23;;;-2.90;64.50;;;;;;5092480;28;20646;-59
2024/01/07 09:58:03;;;;;;;14.53;9.03;;;-2.80;64.60;;;;;;5110651;28;20260;-60
2024/01/07 10:00:32;;;;;;;8.17;6.33;;;-2.60;64.20;;;;;;5110864;28;20752;-60
2024/01/07 10:03:02;;;;;;;12.20;7.80;;;-2.60;63.70;;;;;;5110696;28;20190;-61
2024/01/07 10:05:31;;;;;;;13.93;9.87;;;-2.80;63.80;;;;;;5110170;28;20680;-60
2024/01/07 10:07:59;;;;;;;12.40;9.03;;;-2.60;64.60;;;;;;5110354;28;20195;-60
2024/01/07 10:10:30;;;;;;;15.90;9.43;;;-2.70;63.90;;;;;;5109978;28;20192;-61
2024/01/07 10:12:58;;;;;;;23.00;12.43;;;-2.50;64.60;;;;;;5110281;28;20554;-61
2024/01/07 10:15:26;;;;;;;23.93;13.03;;;-2.40;64.10;;;;;;5091500;28;20571;-59
2024/01/07 10:18:03;;;;;;;15.90;9.77;;;-2.30;64.00;;;;;;5110207;28;20920;-60
2024/01/07 10:20:33;;;;;;;19.03;11.97;;;-2.60;63.20;;;;;;5109710;28;20200;-60
2024/01/07 10:23:02;;;;;;;16.80;10.60;;;-2.70;64.20;;;;;;5109894;28;20268;-58
2024/01/07 10:25:33;;;;;;;20.37;11.30;;;-2.70;64.70;;;;;;5109951;28;20243;-58
2024/01/07 10:28:01;;;;;;;23.17;15.07;;;-2.50;64.10;;;;;;5046095;28;20216;-59
2024/01/07 10:30:30;;;;;;;16.40;9.93;;;-2.30;63.80;;;;;;5046988;28;20217;-61
2024/01/07 10:32:59;;;;;;;17.87;10.77;;;-2.60;63.20;;;;;;5046803;28;20206;-60
2024/01/07 10:35:33;;;;;;;20.03;11.67;;;-2.70;63.40;;;;;;5046405;28;20208;-60
2024/01/07 10:38:02;;;;;;;14.63;8.93;;;-2.50;64.20;;;;;;5046186;28;20211;-61
2024/01/07 10:40:34;;;;;;;14.27;8.43;;;-2.60;63.70;;;;;;5044246;28;20784;-58
2024/01/07 10:43:03;;;;;;;20.13;10.60;;;-2.60;63.80;;;;;;5060148;28;20695;-59
2024/01/07 10:45:32;;;;;;;22.50;11.40;;;-2.50;64.20;;;;;;5054749;28;20236;-59
2024/01/07 10:48:06;;;;;;;15.77;10.23;;;-2.40;64.10;;;;;;5089390;28;20279;-59
2024/01/07 10:50:34;;;;;;;18.97;9.27;;;-2.60;63.60;;;;;;5089504;28;20276;-59
2024/01/07 10:53:07;;;;;;;14.00;12.47;;;-2.70;64.10;;;;;;5089354;28;20262;-59
2024/01/07 10:55:40;;;;;;;23.03;13.10;;;-2.90;64.50;;;;;;5088456;28;20227;-59
2024/01/07 10:58:09;;;;;;;12.27;7.97;;;-2.50;65.10;;;;;;5090555;28;20192;-59
2024/01/07 11:00:39;;;;;;;14.93;8.30;;;-2.70;64.90;;;;;;5109692;28;20195;-60
2024/01/07 11:03:12;;;;;;;15.70;8.27;;;-2.90;65.90;;;;;;5109654;28;20286;-60
2024/01/07 11:05:48;;;;;;;16.17;8.53;;;-2.90;65.90;;;;;;5109406;28;20220;-60
2024/01/07 11:08:33;;;;;;;17.93;10.53;;;-2.80;65.50;;;;;;5109453;28;20668;-59
2024/01/07 11:11:08;;;;;;;20.10;9.93;;;-3.00;65.00;;;;;;5108921;28;20290;-59
2024/01/07 11:13:38;;;;;;;14.97;9.43;;;-3.10;64.70;;;;;;5109538;28;20191;-58
2024/01/07 11:16:09;;;;;;;10.13;6.87;;;-2.90;65.50;;;;;;5109534;28;20191;-58
2024/01/07 11:18:49;;;;;;;14.77;8.33;;;-2.80;65.00;;;;;;5109134;28;20191;-59
2024/01/07 11:21:24;;;;;;;22.37;11.93;;;-2.70;65.30;;;;;;5109484;28;20632;-58
2024/01/07 11:23:53;;;;;;;18.40;10.80;;;-3.10;64.80;;;;;;5113389;28;20195;-60
2024/01/07 11:26:23;;;;;;;22.37;14.40;;;-3.00;65.40;;;;;;5113109;28;20215;-59
2024/01/07 11:28:53;;;;;;;21.70;12.07;;;-2.90;66.10;;;;;;5113360;28;20265;-59
2024/01/07 11:31:22;;;;;;;23.60;14.60;;;-3.00;65.60;;;;;;5113573;28;20231;-59
2024/01/07 11:33:51;;;;;;;14.40;8.73;;;-2.80;65.90;;;;;;5113569;28;20200;-59
2024/01/07 11:36:20;;;;;;;25.70;13.00;;;-3.00;65.10;;;;;;5113367;28;20195;-60
2024/01/07 11:38:50;;;;;;;20.07;11.13;;;-2.90;65.00;;;;;;5112590;28;20199;-59
2024/01/07 11:41:25;;;;;;;11.07;7.70;;;-2.80;65.40;;;;;;5113054;28;20226;-60
2024/01/07 11:43:55;;;;;;;16.87;9.83;;;-2.80;65.70;;;;;;5113329;28;20256;-59
2024/01/07 11:46:24;;;;;;;21.43;10.03;;;-2.90;65.30;;;;;;5113261;28;20589;-60
2024/01/07 11:48:57;;;;;;;19.60;10.57;;;-2.70;65.20;;;;;;5113135;28;20684;-59
2024/01/07 11:51:27;;;;;;;13.17;8.73;;;-2.50;64.70;;;;;;5112983;28;20716;-60
2024/01/07 11:53:55;;;;;;;10.93;6.90;;;-2.50;64.20;;;;;;5112593;28;20187;-59
2024/01/07 11:56:26;;;;;;;13.77;7.83;;;-2.20;64.00;;;;;;5112718;28;20278;-59
2024/01/07 11:58:56;;;;;;;9.90;6.03;;;-2.10;64.00;;;;;;5111231;28;20200;-60
2024/01/07 12:01:26;;;;;;;11.17;6.70;;;-2.10;62.30;;;;;;5109278;28;20207;-60
2024/01/07 12:03:54;;;;;;;8.40;5.50;;;-2.10;62.20;;;;;;5111878;28;20191;-60
2024/01/07 12:06:24;;;;;;;11.43;7.00;;;-2.30;61.60;;;;;;5112903;28;20223;-60
2024/01/07 12:08:53;;;;;;;8.23;5.87;;;-2.30;62.80;;;;;;5094168;28;20752;-60
2024/01/07 12:11:21;;;;;;;15.53;9.97;;;-2.50;63.00;;;;;;5112677;28;20943;-61
2024/01/07 12:13:51;;;;;;;14.53;8.77;;;-2.30;63.90;;;;;;5112757;28;20199;-61
2024/01/07 12:16:20;;;;;;;12.50;7.50;;;-2.00;63.40;;;;;;5112246;28;20196;-60
2024/01/07 12:18:49;;;;;;;10.70;6.43;;;-2.40;62.50;;;;;;5111832;28;20195;-60
2024/01/07 12:21:21;;;;;;;11.23;7.37;;;-2.40;62.90;;;;;;5111521;28;20204;-60
2024/01/07 12:23:52;;;;;;;14.20;7.97;;;-2.30;63.40;;;;;;5111855;28;20211;-60
2024/01/07 12:26:21;;;;;;;11.60;7.20;;;-2.30;63.70;;;;;;5111510;28;20226;-60
2024/01/07 12:28:57;;;;;;;11.87;7.33;;;-2.30;63.10;;;;;;5111825;28;20203;-61
2024/01/07 12:31:25;;;;;;;12.90;7.87;;;-2.40;62.80;;;;;;5111651;28;20187;-60
2024/01/07 12:33:54;;;;;;;10.43;8.27;;;-2.60;62.80;;;;;;5111690;28;20194;-60
2024/01/07 12:36:23;;;;;;;10.23;7.00;;;-2.80;63.40;;;;;;5111626;28;20710;-60
2024/01/07 12:38:53;;;;;;;9.63;6.20;;;-2.50;64.10;;;;;;5111477;28;20203;-62
2024/01/07 12:41:23;;;;;;;14.20;8.50;;;-2.60;63.60;;;;;;5111382;28;20240;-60
2024/01/07 12:43:51;;;;;;;27.83;18.17;;;-2.90;63.90;;;;;;5111702;28;20195;-60
2024/01/07 12:46:21;;;;;;;23.77;15.10;;;-2.90;65.20;;;;;;5111492;28;20589;-61
2024/01/07 12:48:50;;;;;;;23.93;14.97;;;-2.80;65.50;;;;;;5111415;28;20215;-60
2024/01/07 12:51:18;;;;;;;13.87;8.17;;;-2.70;65.50;;;;;;5111495;28;20200;-61
2024/01/07 12:53:49;;;;;;;15.37;8.33;;;-2.70;65.00;;;;;;5111646;28;20282;-60